Time;durP1;ratioP1;P1;durP2;ratioP2;P2;SDS_P1;SDS_P2;PMS_P1;PMS_P2;Temp;Humidity;BMP_temperature;BMP_pressure;BME280_temperature;BME280_humidity;BME280_pressure;Samples;Min_cycle;Max_cycle;Signal;HPM_P1;HPM_P2
2021/11/06 00:00:58;;;;;;;15.97;11.57;;;9.50;95.40;;;;;;5075664;28;20479;-83
2021/11/06 00:03:24;;;;;;;18.17;10.70;;;9.50;95.70;;;;;;5077118;28;20448;-79
2021/11/06 00:05:52;;;;;;;14.93;10.53;;;9.50;95.20;;;;;;5077786;28;20480;-79
2021/11/06 00:08:19;;;;;;;15.37;10.47;;;9.50;95.10;;;;;;5078158;28;20448;-79
2021/11/06 00:10:46;;;;;;;12.30;9.47;;;9.50;94.90;;;;;;5077035;28;20456;-79
2021/11/06 00:13:13;;;;;;;11.70;9.67;;;9.50;94.60;;;;;;5076878;28;20448;-80
2021/11/06 00:15:39;;;;;;;15.10;9.50;;;9.50;94.40;;;;;;5077349;28;20436;-80
2021/11/06 00:18:06;;;;;;;12.13;9.40;;;9.50;94.30;;;;;;5076996;28;20455;-79
2021/11/06 00:20:33;;;;;;;12.20;8.57;;;9.50;94.10;;;;;;5076541;28;20469;-79
2021/11/06 00:23:02;;;;;;;14.57;9.37;;;9.50;93.90;;;;;;5076899;28;20439;-79
2021/11/06 00:25:29;;;;;;;11.00;8.90;;;9.40;93.70;;;;;;5076668;28;20480;-79
2021/11/06 00:27:56;;;;;;;18.17;8.57;;;9.40;93.60;;;;;;5076703;28;20448;-80
2021/11/06 00:30:22;;;;;;;16.57;9.30;;;9.40;93.40;;;;;;5076573;28;20483;-80
2021/11/06 00:32:49;;;;;;;14.27;8.97;;;9.30;93.20;;;;;;5076246;28;20491;-80
2021/11/06 00:35:16;;;;;;;15.77;8.60;;;9.30;93.10;;;;;;5076707;28;20439;-80
2021/11/06 00:37:45;;;;;;;13.80;9.00;;;9.30;93.10;;;;;;5076350;28;20947;-79
2021/11/06 00:40:14;;;;;;;11.50;8.43;;;9.30;93.20;;;;;;5076553;28;20847;-79
2021/11/06 00:42:41;;;;;;;13.10;8.40;;;9.30;93.20;;;;;;5076420;28;20444;-79
2021/11/06 00:45:08;;;;;;;17.20;8.63;;;9.20;93.20;;;;;;5076261;28;20483;-79
2021/11/06 00:47:36;;;;;;;16.93;9.67;;;9.10;93.70;;;;;;5076313;28;20429;-82
2021/11/06 00:50:04;;;;;;;13.10;8.43;;;9.10;93.50;;;;;;5076349;28;20452;-82
2021/11/06 00:52:31;;;;;;;12.53;8.57;;;9.10;93.60;;;;;;5076520;28;20441;-84
2021/11/06 00:54:58;;;;;;;12.07;9.10;;;9.10;93.70;;;;;;5076979;28;20429;-85
2021/11/06 00:57:27;;;;;;;15.80;9.13;;;9.10;93.70;;;;;;5076767;28;20460;-85
2021/11/06 00:59:54;;;;;;;13.00;8.37;;;9.10;93.70;;;;;;5076170;28;20465;-84
2021/11/06 01:02:20;;;;;;;16.90;9.50;;;9.10;93.70;;;;;;5076506;28;20456;-84
2021/11/06 01:04:47;;;;;;;18.10;8.87;;;9.10;93.80;;;;;;5076145;28;20488;-84
2021/11/06 01:07:16;;;;;;;22.10;9.83;;;9.00;93.90;;;;;;5076551;28;20457;-85
2021/11/06 01:09:44;;;;;;;19.83;9.23;;;9.00;93.90;;;;;;5076289;28;20473;-86
2021/11/06 01:12:10;;;;;;;15.40;9.10;;;9.00;93.90;;;;;;5075836;28;20548;-85
2021/11/06 01:14:39;;;;;;;19.13;10.30;;;9.00;93.90;;;;;;5075912;28;20452;-85
2021/11/06 01:17:05;;;;;;;23.40;9.37;;;8.90;93.90;;;;;;5076359;28;20449;-84
2021/11/06 01:19:32;;;;;;;18.70;10.00;;;8.90;94.00;;;;;;5076248;28;20448;-83
2021/11/06 01:21:59;;;;;;;20.93;9.70;;;8.90;94.00;;;;;;5076291;28;20465;-84
2021/11/06 01:24:26;;;;;;;16.40;10.40;;;8.90;94.10;;;;;;5076135;28;20449;-84
2021/11/06 01:26:54;;;;;;;16.80;9.43;;;8.90;94.50;;;;;;5076432;28;20476;-84
2021/11/06 01:29:21;;;;;;;17.80;9.03;;;8.90;94.20;;;;;;5076324;28;20436;-84
2021/11/06 01:31:49;;;;;;;14.77;9.30;;;8.80;94.10;;;;;;5076067;28;20808;-84
2021/11/06 01:34:16;;;;;;;19.57;10.23;;;8.80;94.20;;;;;;5076045;28;20455;-84
2021/11/06 01:36:43;;;;;;;19.83;10.40;;;8.80;94.20;;;;;;5075805;28;20966;-84
2021/11/06 01:39:10;;;;;;;14.70;8.83;;;8.80;94.20;;;;;;5076264;28;20448;-84
2021/11/06 01:41:36;;;;;;;19.23;9.57;;;8.80;94.10;;;;;;5075775;28;20465;-83
2021/11/06 01:44:03;;;;;;;12.70;9.37;;;8.70;94.00;;;;;;5075660;28;20477;-84
2021/11/06 01:46:30;;;;;;;17.87;9.93;;;8.70;93.90;;;;;;5075739;28;20850;-84
2021/11/06 01:48:58;;;;;;;13.00;9.50;;;8.80;93.90;;;;;;5075459;28;20940;-83
2021/11/06 01:51:25;;;;;;;15.27;9.10;;;8.80;93.90;;;;;;5075571;28;20464;-83
2021/11/06 01:53:53;;;;;;;19.73;9.80;;;8.80;93.90;;;;;;5076057;28;20591;-83
2021/11/06 01:56:21;;;;;;;12.97;9.40;;;8.80;93.80;;;;;;5076256;28;20955;-83
2021/11/06 01:58:48;;;;;;;18.97;10.37;;;8.80;93.80;;;;;;5075844;28;20947;-84
2021/11/06 02:01:14;;;;;;;24.30;11.77;;;8.80;93.80;;;;;;5076856;28;20468;-86
2021/11/06 02:03:41;;;;;;;16.07;10.27;;;8.80;93.90;;;;;;5077475;28;20440;-85
2021/11/06 02:06:09;;;;;;;19.30;11.00;;;8.80;93.80;;;;;;5080172;28;20580;-86
2021/11/06 02:08:36;;;;;;;17.93;10.40;;;8.80;93.90;;;;;;5079068;28;20436;-85
2021/11/06 02:11:05;;;;;;;15.97;10.40;;;8.70;93.80;;;;;;5078817;28;20457;-87
2021/11/06 02:13:32;;;;;;;20.10;10.50;;;8.80;93.80;;;;;;5079193;28;20452;-87
2021/11/06 02:15:59;;;;;;;17.80;11.87;;;8.70;93.70;;;;;;5081274;28;20448;-86
2021/11/06 02:18:26;;;;;;;19.07;11.77;;;8.70;93.70;;;;;;5081684;28;20433;-86
2021/11/06 02:21:00;;;;;;;15.30;12.10;;;8.70;93.80;;;;;;5082570;28;20464;-86
2021/11/06 02:23:28;;;;;;;15.63;10.93;;;8.60;93.70;;;;;;5082688;28;20806;-85
2021/11/06 02:25:55;;;;;;;23.60;12.63;;;8.60;93.70;;;;;;5074009;28;20476;-84
2021/11/06 02:28:22;;;;;;;18.30;13.33;;;8.60;93.90;;;;;;5074529;28;20455;-84
2021/11/06 02:30:49;;;;;;;18.37;13.27;;;8.50;93.50;;;;;;5074545;28;20829;-85
2021/11/06 02:33:15;;;;;;;23.40;13.77;;;8.50;93.60;;;;;;5074405;28;20429;-85
2021/11/06 02:35:42;;;;;;;24.30;13.50;;;8.40;93.50;;;;;;5074470;28;20448;-85
2021/11/06 02:38:11;;;;;;;18.10;12.37;;;8.40;93.60;;;;;;5074401;28;20536;-84
2021/11/06 02:40:38;;;;;;;16.77;11.97;;;8.40;93.60;;;;;;5074530;28;20577;-85
2021/11/06 02:43:05;;;;;;;19.83;12.10;;;8.40;93.60;;;;;;5074130;28;20940;-85
2021/11/06 02:45:33;;;;;;;16.03;12.50;;;8.40;93.60;;;;;;5074217;28;20944;-85
2021/11/06 02:48:00;;;;;;;18.13;11.27;;;8.40;93.60;;;;;;5074713;28;20532;-85
2021/11/06 02:50:27;;;;;;;16.43;12.30;;;8.40;93.70;;;;;;5073951;28;20467;-85
2021/11/06 02:52:54;;;;;;;17.23;11.70;;;8.40;93.60;;;;;;5074384;28;20448;-84
2021/11/06 02:55:22;;;;;;;14.57;10.90;;;8.40;93.60;;;;;;5074419;28;20444;-84
2021/11/06 02:57:49;;;;;;;14.27;10.73;;;8.30;93.40;;;;;;5074253;28;20457;-83
2021/11/06 03:00:18;;;;;;;15.80;10.80;;;8.30;93.40;;;;;;5074803;28;20465;-85
2021/11/06 03:02:45;;;;;;;15.77;11.17;;;8.30;93.30;;;;;;5075531;28;20456;-84
2021/11/06 03:05:14;;;;;;;15.73;9.97;;;8.30;93.30;;;;;;5085846;28;20815;-86
2021/11/06 03:07:42;;;;;;;14.77;10.20;;;8.30;93.40;;;;;;5081966;28;20425;-86
2021/11/06 03:10:11;;;;;;;17.43;10.03;;;8.30;93.40;;;;;;5082591;28;20444;-87
2021/11/06 03:12:40;;;;;;;12.63;9.57;;;8.30;93.20;;;;;;5077938;28;20452;-86
2021/11/06 03:15:08;;;;;;;17.57;9.80;;;8.20;93.20;;;;;;5077500;28;20449;-85
2021/11/06 03:17:35;;;;;;;17.53;10.67;;;8.20;93.20;;;;;;5078531;28;20462;-85
2021/11/06 03:20:04;;;;;;;14.50;9.87;;;8.20;93.20;;;;;;5077314;28;20502;-86
2021/11/06 03:22:32;;;;;;;12.00;9.83;;;8.20;93.20;;;;;;5056278;28;20453;-86
2021/11/06 03:24:59;;;;;;;15.67;10.90;;;8.20;93.20;;;;;;5056600;28;20485;-86
2021/11/06 03:27:26;;;;;;;15.70;11.60;;;8.10;93.30;;;;;;5056181;28;20492;-86
2021/11/06 03:29:55;;;;;;;16.50;10.67;;;8.20;93.40;;;;;;5056393;28;21016;-86
2021/11/06 03:32:22;;;;;;;17.10;10.53;;;8.20;93.30;;;;;;5056189;28;20430;-85
2021/11/06 03:34:49;;;;;;;18.20;10.50;;;8.20;93.40;;;;;;5056432;28;20430;-85
2021/11/06 03:37:16;;;;;;;17.17;10.90;;;8.10;93.30;;;;;;5058527;28;20444;-85
2021/11/06 03:39:43;;;;;;;13.50;10.53;;;8.10;93.30;;;;;;5060608;28;20807;-85
2021/11/06 03:42:10;;;;;;;21.23;10.93;;;8.20;93.40;;;;;;5061220;28;20980;-85
2021/11/06 03:44:37;;;;;;;18.40;10.60;;;8.10;93.30;;;;;;5060513;28;20453;-85
2021/11/06 03:47:05;;;;;;;16.90;11.17;;;8.10;93.30;;;;;;5060989;28;20473;-85
2021/11/06 03:49:32;;;;;;;17.57;9.57;;;8.10;93.30;;;;;;5061063;28;20459;-85
2021/11/06 03:51:59;;;;;;;14.60;9.50;;;8.10;93.30;;;;;;5061616;28;20478;-85
2021/11/06 03:54:26;;;;;;;19.80;10.27;;;8.00;93.20;;;;;;5060711;28;20815;-84
2021/11/06 03:56:53;;;;;;;16.80;9.90;;;8.00;93.30;;;;;;5060507;28;20947;-86
2021/11/06 03:59:19;;;;;;;16.10;10.13;;;8.00;93.30;;;;;;5062684;28;20461;-87
2021/11/06 04:01:46;;;;;;;16.30;10.00;;;8.10;93.40;;;;;;5061490;28;20479;-85
2021/11/06 04:04:14;;;;;;;18.23;10.23;;;8.00;93.20;;;;;;5061637;28;20464;-85
2021/11/06 04:06:41;;;;;;;15.70;10.77;;;8.00;93.30;;;;;;5061145;28;20476;-85
2021/11/06 04:09:08;;;;;;;16.50;9.70;;;8.00;93.30;;;;;;5061333;28;20453;-85
2021/11/06 04:11:35;;;;;;;26.77;10.10;;;8.00;93.30;;;;;;5061018;28;21091;-85
2021/11/06 04:14:02;;;;;;;23.23;10.40;;;8.00;93.30;;;;;;5060841;28;20457;-86
2021/11/06 04:16:28;;;;;;;13.97;10.23;;;8.10;93.40;;;;;;5066932;28;20537;-86
2021/11/06 04:18:55;;;;;;;15.43;10.53;;;8.00;93.40;;;;;;5064391;28;20448;-84
2021/11/06 04:21:24;;;;;;;17.90;10.67;;;8.00;93.30;;;;;;5061921;28;20552;-84
2021/11/06 04:23:51;;;;;;;16.50;12.30;;;8.00;93.40;;;;;;5061172;28;20983;-85
2021/11/06 04:26:18;;;;;;;12.67;10.63;;;8.00;93.30;;;;;;5059996;28;20481;-85
2021/11/06 04:28:45;;;;;;;12.90;9.47;;;8.00;93.40;;;;;;5059873;28;21003;-85
2021/11/06 04:31:12;;;;;;;14.47;9.73;;;8.00;93.40;;;;;;5060952;28;20477;-85
2021/11/06 04:33:39;;;;;;;15.43;10.20;;;8.00;93.40;;;;;;5062718;28;20445;-86
2021/11/06 04:36:07;;;;;;;13.60;10.90;;;8.00;93.50;;;;;;5063042;28;20461;-86
2021/11/06 04:38:36;;;;;;;16.27;12.33;;;8.00;93.60;;;;;;5062916;28;20536;-86
2021/11/06 04:41:02;;;;;;;20.57;11.63;;;8.00;93.50;;;;;;5063632;28;20473;-86
2021/11/06 04:43:29;;;;;;;19.43;10.97;;;8.00;93.50;;;;;;5064245;28;20462;-85
2021/11/06 04:45:56;;;;;;;20.33;11.40;;;8.00;93.50;;;;;;5065000;28;20454;-85
2021/11/06 04:48:23;;;;;;;14.53;11.10;;;8.00;93.60;;;;;;5062689;28;20457;-86
2021/11/06 04:50:50;;;;;;;16.43;10.47;;;8.00;93.50;;;;;;5064100;28;20481;-85
2021/11/06 04:53:16;;;;;;;22.33;11.13;;;7.90;93.50;;;;;;5064891;28;20458;-85
2021/11/06 04:55:45;;;;;;;23.80;12.17;;;8.00;93.60;;;;;;5063590;28;20446;-86
2021/11/06 04:58:11;;;;;;;17.20;11.47;;;8.00;93.60;;;;;;5063210;28;20453;-86
2021/11/06 05:00:38;;;;;;;16.27;12.77;;;8.00;93.60;;;;;;5061756;28;20513;-86
2021/11/06 05:03:05;;;;;;;21.30;12.60;;;7.90;93.50;;;;;;5062124;28;20456;-86
2021/11/06 05:05:32;;;;;;;15.37;11.63;;;8.00;93.60;;;;;;5061487;28;20460;-84
2021/11/06 05:07:59;;;;;;;19.20;12.07;;;7.90;93.50;;;;;;5061277;28;20898;-84
2021/11/06 05:10:25;;;;;;;19.13;11.77;;;8.00;93.50;;;;;;5061815;28;20492;-84
2021/11/06 05:12:54;;;;;;;18.67;12.63;;;8.00;93.40;;;;;;5060703;28;20449;-85
2021/11/06 05:15:20;;;;;;;19.83;12.50;;;7.90;93.40;;;;;;5060908;28;20454;-84
2021/11/06 05:17:47;;;;;;;16.60;12.60;;;8.00;93.50;;;;;;5060859;28;20446;-84
2021/11/06 05:20:14;;;;;;;19.83;12.40;;;8.00;93.50;;;;;;5058964;28;20548;-84
2021/11/06 05:22:41;;;;;;;18.43;13.10;;;7.90;93.50;;;;;;5058474;28;20496;-84
2021/11/06 05:25:09;;;;;;;23.00;13.50;;;7.90;93.50;;;;;;5058710;28;20446;-83
2021/11/06 05:27:36;;;;;;;23.07;12.37;;;7.90;93.50;;;;;;5057220;28;20901;-88
2021/11/06 05:30:07;;;;;;;22.03;15.67;;;7.90;93.50;;;;;;5056639;28;20450;-88
2021/11/06 05:32:34;;;;;;;23.50;13.77;;;7.90;93.50;;;;;;5056979;28;20433;-86
2021/11/06 05:35:01;;;;;;;24.37;14.67;;;7.90;93.50;;;;;;5056693;28;20418;-86
2021/11/06 05:37:28;;;;;;;24.60;14.97;;;7.90;93.50;;;;;;5056838;28;20456;-85
2021/11/06 05:39:55;;;;;;;26.33;14.03;;;8.00;93.50;;;;;;5056190;28;20499;-86
2021/11/06 05:42:21;;;;;;;25.03;15.53;;;7.90;93.40;;;;;;5057573;28;20454;-85
2021/11/06 05:44:48;;;;;;;24.13;14.83;;;7.90;93.40;;;;;;5056028;28;20898;-86
2021/11/06 05:47:17;;;;;;;28.77;14.60;;;7.90;93.50;;;;;;5056105;28;20481;-85
2021/11/06 05:49:44;;;;;;;19.13;13.20;;;7.90;93.40;;;;;;5056017;28;20817;-88
2021/11/06 05:52:10;;;;;;;25.20;13.50;;;7.90;93.40;;;;;;5055640;28;20453;-89
2021/11/06 05:54:38;;;;;;;19.60;13.90;;;8.00;93.40;;;;;;5056514;28;20461;-85
2021/11/06 05:57:05;;;;;;;23.23;14.13;;;7.90;93.30;;;;;;5055744;28;20982;-86
2021/11/06 05:59:32;;;;;;;21.00;13.40;;;8.00;93.40;;;;;;5055941;28;20456;-86
2021/11/06 06:01:58;;;;;;;17.23;11.73;;;7.90;93.30;;;;;;5055251;28;20568;-86
2021/11/06 06:04:27;;;;;;;21.33;12.60;;;7.90;93.30;;;;;;5056400;28;20441;-85
2021/11/06 06:06:53;;;;;;;17.80;11.90;;;7.90;93.30;;;;;;5056245;28;20834;-85
2021/11/06 06:09:20;;;;;;;21.20;13.33;;;7.90;93.30;;;;;;5056114;28;20461;-84
2021/11/06 06:11:47;;;;;;;17.37;11.90;;;7.80;93.40;;;;;;5055403;28;20456;-85
2021/11/06 06:14:14;;;;;;;18.30;11.87;;;7.80;93.40;;;;;;5055483;28;20959;-85
2021/11/06 06:16:41;;;;;;;15.67;11.70;;;7.80;93.30;;;;;;5056146;28;20947;-86
2021/11/06 06:19:07;;;;;;;16.90;11.93;;;7.90;93.40;;;;;;5058125;28;20471;-86
2021/11/06 06:21:36;;;;;;;19.13;12.37;;;7.80;93.20;;;;;;5057942;28;20465;-86
2021/11/06 06:24:02;;;;;;;16.00;11.67;;;7.80;93.20;;;;;;5058110;28;20458;-86
2021/11/06 06:26:30;;;;;;;16.70;12.27;;;7.80;93.20;;;;;;5057750;28;20484;-86
2021/11/06 06:28:56;;;;;;;19.43;12.50;;;7.70;93.10;;;;;;5059189;28;20454;-86
2021/11/06 06:31:23;;;;;;;19.20;11.97;;;7.70;93.20;;;;;;5057891;28;20468;-86
2021/11/06 06:33:50;;;;;;;17.38;14.15;;;7.70;93.40;;;;;;5057198;28;20444;-86
2021/11/06 06:36:51;;;;;;;16.80;14.13;;;7.80;93.20;;;;;;5059235;28;20207;-86
2021/11/06 06:39:31;;;;;;;19.93;13.13;;;7.70;93.10;;;;;;5059794;28;20808;-85
2021/11/06 06:41:58;;;;;;;17.43;12.07;;;7.80;93.20;;;;;;5058542;28;20465;-85
2021/11/06 06:44:25;;;;;;;18.37;12.17;;;7.80;93.20;;;;;;5058905;28;20465;-85
2021/11/06 06:46:51;;;;;;;14.70;11.40;;;7.80;93.10;;;;;;5057973;28;20497;-86
2021/11/06 06:49:18;;;;;;;16.17;11.30;;;7.80;93.10;;;;;;5057539;28;20803;-86
2021/11/06 06:51:45;;;;;;;13.93;11.20;;;7.80;93.00;;;;;;5056548;28;20822;-83
2021/11/06 06:54:12;;;;;;;13.30;10.93;;;7.80;93.10;;;;;;5056447;28;20450;-86
2021/11/06 06:56:40;;;;;;;16.10;11.83;;;7.80;93.20;;;;;;5056201;28;20445;-86
2021/11/06 06:59:06;;;;;;;20.40;11.00;;;7.80;93.10;;;;;;5055892;28;20457;-87
2021/11/06 07:01:33;;;;;;;17.50;11.23;;;7.80;93.00;;;;;;5055211;28;20556;-88
2021/11/06 07:04:00;;;;;;;15.63;11.13;;;7.90;93.00;;;;;;5054551;28;20452;-87
2021/11/06 07:06:27;;;;;;;15.60;12.80;;;7.80;92.90;;;;;;5054863;28;20457;-88
2021/11/06 07:08:53;;;;;;;16.43;12.67;;;7.80;93.00;;;;;;5054632;28;20933;-88
2021/11/06 07:11:20;;;;;;;14.10;10.40;;;7.80;93.20;;;;;;5054990;28;20476;-87
2021/11/06 07:13:49;;;;;;;14.17;11.33;;;7.80;93.10;;;;;;5055393;28;20450;-87
2021/11/06 07:16:15;;;;;;;14.47;10.93;;;7.80;93.00;;;;;;5057181;28;21007;-90
2021/11/06 07:18:42;;;;;;;14.90;10.57;;;7.90;93.00;;;;;;5058698;28;20442;-87
2021/11/06 07:21:09;;;;;;;16.50;10.70;;;7.90;93.00;;;;;;5059132;28;20454;-88
2021/11/06 07:23:38;;;;;;;17.13;10.90;;;8.00;93.00;;;;;;5060030;28;20437;-88
2021/11/06 07:26:04;;;;;;;19.57;9.27;;;8.00;92.80;;;;;;5061512;28;20445;-87
2021/11/06 07:28:33;;;;;;;17.20;10.17;;;8.00;92.80;;;;;;5057329;28;20828;-87
2021/11/06 07:31:01;;;;;;;12.10;8.73;;;8.10;92.70;;;;;;5055912;28;20478;-87
2021/11/06 07:33:28;;;;;;;14.63;9.10;;;8.10;92.60;;;;;;5057915;28;20457;-87
2021/11/06 07:35:55;;;;;;;11.40;9.40;;;8.10;92.50;;;;;;5056393;28;20456;-87
2021/11/06 07:38:24;;;;;;;9.70;8.30;;;8.20;92.60;;;;;;5035902;28;20442;-87
2021/11/06 07:40:51;;;;;;;10.90;8.73;;;8.10;92.60;;;;;;5037172;28;20451;-87
2021/11/06 07:43:18;;;;;;;12.10;7.93;;;8.20;92.60;;;;;;5037507;28;20455;-87
2021/11/06 07:45:45;;;;;;;13.27;7.73;;;8.20;92.60;;;;;;5045294;28;20387;-88
2021/11/06 07:48:13;;;;;;;11.17;8.60;;;8.20;92.60;;;;;;5034618;28;20478;-87
2021/11/06 07:50:40;;;;;;;12.27;9.20;;;8.20;92.50;;;;;;5034148;28;20485;-88
2021/11/06 07:53:06;;;;;;;13.40;10.03;;;8.30;92.50;;;;;;5033771;28;20445;-87
2021/11/06 07:55:34;;;;;;;11.60;8.30;;;8.30;92.30;;;;;;5033779;28;20458;-89
2021/11/06 07:58:01;;;;;;;11.77;7.87;;;8.30;92.30;;;;;;5033808;28;20500;-88
2021/11/06 08:00:28;;;;;;;8.90;8.00;;;8.50;92.20;;;;;;5034526;28;20521;-84
2021/11/06 08:57:53;;;;;;;9.27;6.13;;;8.70;92.50;;;;;;5019709;28;20540;-81
2021/11/06 09:00:26;;;;;;;13.53;6.60;;;8.70;92.60;;;;;;5018531;28;20483;-82
2021/11/06 09:02:54;;;;;;;9.50;6.20;;;8.80;92.90;;;;;;5019252;28;20512;-81
2021/11/06 09:05:21;;;;;;;12.67;6.63;;;8.80;92.30;;;;;;5019340;28;20452;-82
2021/11/06 10:48:06;;;;;;;5.70;3.97;;;12.20;83.50;;;;;;5015669;28;20473;-82
2021/11/06 10:50:54;;;;;;;4.43;3.90;;;12.00;83.60;;;;;;5014725;28;20489;-82
2021/11/06 10:53:39;;;;;;;4.20;3.43;;;12.10;83.80;;;;;;5014845;28;20435;-86
2021/11/06 10:56:22;;;;;;;5.83;4.20;;;12.40;84.10;;;;;;5017334;28;20439;-85
2021/11/06 10:58:50;;;;;;;4.70;4.10;;;12.70;82.00;;;;;;5015771;28;20448;-84
2021/11/06 11:01:21;;;;;;;4.77;4.00;;;13.00;80.80;;;;;;5016007;28;20471;-86
2021/11/06 11:03:51;;;;;;;5.50;3.30;;;13.10;79.30;;;;;;5015141;28;20417;-85
2021/11/06 11:06:19;;;;;;;6.83;4.07;;;12.90;78.70;;;;;;5016056;28;20817;-81
2021/11/06 11:08:48;;;;;;;4.10;3.67;;;12.60;79.80;;;;;;5016289;28;20515;-80
2021/11/06 11:11:18;;;;;;;4.60;4.10;;;12.40;80.80;;;;;;5015857;28;20467;-82
2021/11/06 11:13:50;;;;;;;5.47;4.00;;;12.30;82.20;;;;;;5015187;28;20439;-79
2021/11/06 11:16:18;;;;;;;7.43;4.27;;;12.30;82.10;;;;;;5015227;28;20810;-80
2021/11/06 11:18:46;;;;;;;7.80;4.17;;;12.30;82.10;;;;;;5016710;28;20448;-80
2021/11/06 11:21:17;;;;;;;4.73;3.30;;;12.30;82.50;;;;;;5015709;28;20570;-79
2021/11/06 11:23:46;;;;;;;7.63;3.73;;;12.30;82.80;;;;;;5015689;28;20439;-80
2021/11/06 11:26:15;;;;;;;4.57;3.03;;;12.30;84.00;;;;;;5016107;28;20454;-80
2021/11/06 11:28:42;;;;;;;5.80;3.67;;;12.40;83.60;;;;;;5017484;28;20483;-81
2021/11/06 11:31:09;;;;;;;4.87;4.07;;;12.60;82.50;;;;;;5014808;28;20478;-79
2021/11/06 11:33:38;;;;;;;4.80;3.43;;;12.70;81.20;;;;;;5014942;28;20462;-78
2021/11/06 11:36:06;;;;;;;6.20;3.63;;;12.90;81.00;;;;;;5014826;28;20462;-81
2021/11/06 11:38:35;;;;;;;4.40;3.20;;;13.00;79.80;;;;;;5015255;28;20451;-81
2021/11/06 11:41:25;;;;;;;3.90;2.90;;;13.10;78.50;;;;;;5014904;28;20978;-80
2021/11/06 20:58:55;;;;;;;5.07;3.27;;;11.20;84.80;;;;;;5038190;28;20497;-85
2021/11/06 21:01:22;;;;;;;6.70;4.10;;;11.10;84.80;;;;;;5038649;28;20469;-85
2021/11/06 21:03:49;;;;;;;7.20;4.00;;;11.10;84.70;;;;;;5037659;28;20439;-85
2021/11/06 21:06:15;;;;;;;3.87;3.40;;;11.10;84.80;;;;;;5037152;28;20469;-85
2021/11/06 21:08:48;;;;;;;3.83;3.43;;;11.20;85.00;;;;;;5036569;28;20820;-85
2021/11/06 21:11:29;;;;;;;5.10;4.13;;;11.10;85.00;;;;;;5036232;28;20544;-85
2021/11/06 21:14:10;;;;;;;5.13;3.77;;;11.20;85.40;;;;;;5037327;28;20446;-86
2021/11/06 21:16:46;;;;;;;5.13;3.50;;;11.30;85.50;;;;;;5036891;28;20454;-86
2021/11/06 21:19:14;;;;;;;6.93;4.40;;;11.30;85.40;;;;;;5036948;28;20442;-87
2021/11/06 21:21:44;;;;;;;6.80;3.33;;;11.30;85.10;;;;;;5036298;28;20507;-86
2021/11/06 21:24:22;;;;;;;5.73;3.47;;;11.30;85.20;;;;;;5036530;28;20914;-85
2021/11/06 21:26:49;;;;;;;4.30;3.90;;;11.30;85.30;;;;;;5036379;28;20441;-84
2021/11/06 21:29:17;;;;;;;5.27;3.20;;;11.30;84.60;;;;;;5036117;28;20485;-84
2021/11/06 21:31:44;;;;;;;11.93;5.60;;;11.30;84.60;;;;;;5035682;28;20470;-85
2021/11/06 21:34:11;;;;;;;7.13;5.33;;;11.20;84.50;;;;;;5036068;28;20453;-83
2021/11/06 21:36:43;;;;;;;5.17;3.17;;;11.30;84.70;;;;;;5035926;28;20446;-83
2021/11/06 21:42:35;;;;;;;5.70;4.13;;;11.30;84.40;;;;;;5042002;23;20543;-69
2021/11/06 21:45:05;;;;;;;5.83;4.40;;;11.20;84.80;;;;;;5034841;28;21020;-68
2021/11/06 21:47:32;;;;;;;11.53;5.70;;;11.20;85.00;;;;;;5034814;28;20439;-69
2021/11/06 21:50:03;;;;;;;4.27;3.63;;;11.20;84.80;;;;;;5034640;28;20486;-69
2021/11/06 21:52:30;;;;;;;5.67;3.30;;;11.30;84.70;;;;;;5034639;28;21048;-70
2021/11/06 21:54:57;;;;;;;8.67;4.10;;;11.20;84.50;;;;;;5035198;28;20442;-70
2021/11/06 21:57:24;;;;;;;6.73;3.33;;;11.30;84.60;;;;;;5034895;28;20450;-70
2021/11/06 21:59:52;;;;;;;11.90;4.07;;;11.30;84.40;;;;;;5034888;28;20453;-70
2021/11/06 22:02:20;;;;;;;3.83;3.30;;;11.30;84.50;;;;;;5034357;28;20977;-70
2021/11/06 22:04:47;;;;;;;6.63;3.23;;;11.30;84.50;;;;;;5034664;28;20454;-70
2021/11/06 22:07:13;;;;;;;15.17;6.30;;;11.30;84.60;;;;;;5034727;28;20449;-70
2021/11/06 22:09:40;;;;;;;10.10;4.00;;;11.30;84.80;;;;;;5034691;28;20832;-70
2021/11/06 22:12:09;;;;;;;7.83;4.40;;;11.30;84.50;;;;;;5034513;28;20890;-70
2021/11/06 22:14:36;;;;;;;7.20;3.50;;;11.30;84.70;;;;;;5034613;28;20457;-69
2021/11/06 22:17:05;;;;;;;3.67;3.30;;;11.30;84.30;;;;;;5034605;28;20797;-69
2021/11/06 22:19:33;;;;;;;4.70;3.30;;;11.30;84.60;;;;;;5034413;28;20451;-69
2021/11/06 22:22:00;;;;;;;4.50;4.10;;;11.30;84.60;;;;;;5034412;28;20466;-69
2021/11/06 22:24:27;;;;;;;4.43;3.70;;;11.30;84.60;;;;;;5034426;28;20447;-69
2021/11/06 22:26:54;;;;;;;5.83;3.37;;;11.30;84.70;;;;;;5034413;28;20510;-69
2021/11/06 22:29:22;;;;;;;6.17;2.80;;;11.30;85.20;;;;;;5034496;28;20481;-70
2021/11/06 22:31:49;;;;;;;3.30;2.90;;;11.30;84.20;;;;;;5034175;28;20470;-71
2021/11/06 22:34:16;;;;;;;5.23;2.90;;;11.40;84.20;;;;;;5034032;28;20961;-69
2021/11/06 22:36:46;;;;;;;6.40;2.70;;;11.40;83.80;;;;;;5034264;28;20449;-68
2021/11/06 22:39:14;;;;;;;3.13;2.83;;;11.40;83.70;;;;;;5034524;28;20525;-68
2021/11/06 22:41:40;;;;;;;3.20;2.90;;;11.40;83.60;;;;;;5033323;28;20458;-68
2021/11/06 22:44:08;;;;;;;7.07;2.87;;;11.40;83.90;;;;;;5033506;28;20446;-65
2021/11/06 22:46:37;;;;;;;2.70;2.20;;;11.40;84.00;;;;;;5033886;28;20450;-65
2021/11/06 22:49:04;;;;;;;6.43;2.50;;;11.40;84.10;;;;;;5033742;28;20969;-65
2021/11/06 22:51:31;;;;;;;3.97;2.93;;;11.40;84.60;;;;;;5033838;28;20505;-65
2021/11/06 22:54:03;;;;;;;4.50;3.13;;;11.40;83.80;;;;;;5033556;28;20489;-65
2021/11/06 22:56:30;;;;;;;3.30;3.00;;;11.50;84.10;;;;;;5033873;28;20435;-65
2021/11/06 22:58:57;;;;;;;3.90;3.00;;;11.50;84.10;;;;;;5033766;28;20434;-65
2021/11/06 23:01:27;;;;;;;6.27;3.93;;;11.40;83.40;;;;;;5033744;28;20462;-65
2021/11/06 23:03:57;;;;;;;6.13;3.10;;;11.40;83.60;;;;;;5033750;28;20469;-65
2021/11/06 23:06:30;;;;;;;7.30;3.13;;;11.40;84.30;;;;;;5033688;28;20457;-65
2021/11/06 23:08:59;;;;;;;5.33;3.27;;;11.40;84.20;;;;;;5033370;28;20977;-65
2021/11/06 23:11:32;;;;;;;5.97;3.43;;;11.40;84.70;;;;;;5033324;28;20450;-65
2021/11/06 23:14:00;;;;;;;9.10;3.67;;;11.30;84.70;;;;;;5033624;28;20438;-65
2021/11/06 23:16:27;;;;;;;3.50;2.80;;;11.30;86.60;;;;;;5033131;28;20822;-65
2021/11/06 23:18:54;;;;;;;4.57;3.70;;;11.30;85.30;;;;;;5034071;28;20784;-65
2021/11/06 23:21:23;;;;;;;5.90;3.40;;;11.30;85.90;;;;;;5033366;28;20449;-65
2021/11/06 23:23:50;;;;;;;7.40;4.03;;;11.30;86.30;;;;;;5033342;28;20470;-65
2021/11/06 23:26:20;;;;;;;6.23;3.77;;;11.30;85.50;;;;;;5033351;28;20445;-65
2021/11/06 23:28:48;;;;;;;6.47;3.83;;;11.30;85.90;;;;;;5033453;28;20466;-65
2021/11/06 23:31:15;;;;;;;4.03;3.73;;;11.30;85.80;;;;;;5033412;28;20834;-65
2021/11/06 23:33:43;;;;;;;4.37;3.70;;;11.30;85.70;;;;;;5033278;28;20472;-65
2021/11/06 23:36:11;;;;;;;7.47;4.40;;;11.30;85.70;;;;;;5032972;28;20446;-65
2021/11/06 23:38:38;;;;;;;8.97;4.90;;;11.30;85.50;;;;;;5033578;28;20446;-65
2021/11/06 23:41:06;;;;;;;6.60;4.47;;;11.30;85.90;;;;;;5033064;28;20513;-65
2021/11/06 23:43:34;;;;;;;4.70;3.00;;;11.30;85.70;;;;;;5033229;28;20498;-65
2021/11/06 23:46:03;;;;;;;6.63;3.20;;;11.30;85.60;;;;;;5033512;28;20450;-65
2021/11/06 23:48:33;;;;;;;9.43;3.77;;;11.40;86.00;;;;;;5033213;28;20517;-65
2021/11/06 23:51:03;;;;;;;4.97;4.43;;;11.40;86.40;;;;;;5033498;28;20914;-65
2021/11/06 23:53:35;;;;;;;4.13;3.73;;;11.40;86.10;;;;;;5053963;28;20465;-66
2021/11/06 23:56:15;;;;;;;6.13;3.80;;;11.40;86.20;;;;;;5063910;28;20460;-65
2021/11/06 23:58:48;;;;;;;7.10;5.20;;;11.50;85.90;;;;;;5060897;28;20555;-65
